Time;durP1;ratioP1;P1;durP2;ratioP2;P2;SDS_P1;SDS_P2;PMS_P1;PMS_P2;Temp;Humidity;BMP_temperature;BMP_pressure;BME280_temperature;BME280_humidity;BME280_pressure;Samples;Min_cycle;Max_cycle;Signal;HPM_P1;HPM_P2
2020/12/17 00:02:14;;;;;;;6.77;5.67;;;21.40;37.40;;;;;;5000770;28;20454;-56
2020/12/17 00:04:39;;;;;;;6.85;6.00;;;21.50;37.30;;;;;;5000098;28;20393;-56
2020/12/17 00:07:05;;;;;;;7.07;5.90;;;21.40;37.20;;;;;;5001753;28;20415;-56
2020/12/17 00:09:30;;;;;;;6.23;5.50;;;21.50;37.30;;;;;;5000399;28;20429;-56
2020/12/17 00:11:56;;;;;;;6.60;5.90;;;21.50;37.50;;;;;;4998925;28;20977;-56
2020/12/17 00:14:23;;;;;;;7.30;5.70;;;21.50;37.60;;;;;;4993769;28;20441;-56
2020/12/17 00:16:48;;;;;;;7.30;5.97;;;21.50;37.40;;;;;;5004344;28;20401;-56
2020/12/17 00:19:14;;;;;;;6.93;5.53;;;21.50;37.00;;;;;;5008998;28;20407;-56
2020/12/17 00:21:40;;;;;;;7.03;5.50;;;21.40;36.90;;;;;;4994234;28;20406;-56
2020/12/17 00:24:05;;;;;;;6.37;5.70;;;21.30;36.60;;;;;;4999506;28;20479;-66
2020/12/17 00:26:31;;;;;;;7.65;6.10;;;21.30;36.50;;;;;;5002202;28;20483;-60
2020/12/17 00:28:56;;;;;;;7.13;5.80;;;21.30;36.30;;;;;;4999242;28;20515;-56
2020/12/17 00:31:22;;;;;;;6.53;5.72;;;21.30;36.30;;;;;;5002465;28;20404;-56
2020/12/17 00:33:49;;;;;;;6.30;5.70;;;21.30;36.30;;;;;;5000481;28;20418;-56
2020/12/17 00:36:19;;;;;;;6.95;5.70;;;21.20;36.20;;;;;;4998584;28;20429;-56
2020/12/17 00:38:45;;;;;;;6.05;5.45;;;21.20;36.10;;;;;;4991728;28;20382;-56
2020/12/17 00:41:13;;;;;;;6.28;5.40;;;21.20;36.70;;;;;;4995916;28;20999;-56
2020/12/17 00:43:38;;;;;;;6.63;5.88;;;21.20;36.10;;;;;;5011505;28;20388;-56
2020/12/17 00:46:04;;;;;;;6.85;6.00;;;21.20;36.00;;;;;;5011579;28;20403;-56
2020/12/17 00:48:29;;;;;;;6.87;5.93;;;21.20;36.00;;;;;;5010712;28;20403;-56
2020/12/17 00:50:55;;;;;;;6.27;5.63;;;21.20;35.90;;;;;;5010419;28;20395;-56
2020/12/17 00:53:21;;;;;;;6.32;5.72;;;21.20;36.00;;;;;;4992120;28;20396;-56
2020/12/17 00:55:46;;;;;;;6.93;5.77;;;21.20;36.00;;;;;;4974429;28;20795;-56
2020/12/17 00:58:12;;;;;;;6.15;5.55;;;21.20;35.90;;;;;;5009760;28;20400;-56
2020/12/17 01:00:38;;;;;;;6.97;6.00;;;21.20;35.80;;;;;;4993609;28;20452;-56
2020/12/17 01:03:03;;;;;;;6.72;5.82;;;21.20;35.80;;;;;;5011046;28;20877;-56
2020/12/17 01:05:30;;;;;;;6.78;5.97;;;21.20;35.70;;;;;;5010864;28;20421;-56
2020/12/17 01:07:56;;;;;;;6.67;5.97;;;21.20;35.70;;;;;;5011349;28;20395;-56
2020/12/17 01:10:21;;;;;;;6.53;5.80;;;21.20;35.70;;;;;;4998078;28;20953;-56
2020/12/17 01:12:47;;;;;;;6.88;5.97;;;21.20;35.60;;;;;;4991596;28;20493;-56
2020/12/17 01:15:12;;;;;;;6.60;5.90;;;21.20;35.60;;;;;;4991432;28;20890;-56
2020/12/17 01:17:38;;;;;;;7.20;5.78;;;21.10;35.50;;;;;;4991728;28;20395;-56
2020/12/17 01:20:04;;;;;;;6.67;5.77;;;21.10;35.50;;;;;;4991544;28;20406;-56
2020/12/17 01:22:29;;;;;;;6.20;5.60;;;21.10;35.50;;;;;;4991494;28;20398;-56
2020/12/17 01:24:55;;;;;;;6.70;6.00;;;21.10;35.50;;;;;;4992191;28;20744;-56
2020/12/17 01:27:21;;;;;;;6.65;5.97;;;21.10;35.50;;;;;;4991653;28;20399;-56
2020/12/17 01:29:46;;;;;;;7.53;6.27;;;21.10;35.50;;;;;;4991620;28;20390;-56
2020/12/17 01:32:12;;;;;;;6.93;6.22;;;21.10;35.50;;;;;;4991363;28;20878;-56
2020/12/17 01:34:37;;;;;;;7.00;6.00;;;21.10;35.50;;;;;;4991269;28;20399;-56
2020/12/17 01:37:03;;;;;;;6.70;5.90;;;21.10;35.50;;;;;;4975083;28;20406;-56
2020/12/17 01:39:29;;;;;;;6.57;5.80;;;21.10;35.50;;;;;;5010643;28;20416;-56
2020/12/17 01:41:54;;;;;;;6.00;5.40;;;21.10;35.40;;;;;;5006332;28;20464;-55
2020/12/17 01:44:20;;;;;;;6.97;6.20;;;21.10;35.40;;;;;;4994839;28;20398;-55
2020/12/17 01:46:46;;;;;;;6.68;5.97;;;21.10;35.40;;;;;;5001285;28;20411;-56
2020/12/17 01:49:15;;;;;;;6.72;6.03;;;21.10;35.40;;;;;;5013991;28;20384;-56
2020/12/17 01:51:41;;;;;;;6.45;5.78;;;21.10;35.30;;;;;;5014512;28;20938;-56
2020/12/17 01:54:07;;;;;;;6.70;6.00;;;21.10;35.30;;;;;;5014276;28;20425;-56
2020/12/17 01:56:35;;;;;;;6.20;5.60;;;21.00;35.30;;;;;;5014337;28;20404;-56
2020/12/17 01:59:12;;;;;;;6.53;5.90;;;21.00;35.30;;;;;;5013882;28;20408;-56
2020/12/17 02:01:43;;;;;;;6.50;5.80;;;21.00;35.20;;;;;;5014191;28;20471;-56
2020/12/17 02:04:10;;;;;;;6.50;5.90;;;21.00;35.30;;;;;;5010558;28;20473;-56
2020/12/17 02:06:35;;;;;;;6.38;5.70;;;21.00;35.30;;;;;;4994549;28;21099;-56
2020/12/17 02:09:03;;;;;;;6.32;5.72;;;21.00;35.30;;;;;;4994048;28;20386;-56
2020/12/17 02:11:28;;;;;;;6.07;5.47;;;21.00;35.30;;;;;;4994594;28;20790;-56
2020/12/17 02:13:54;;;;;;;6.32;5.70;;;21.00;35.30;;;;;;4994754;28;20874;-55
2020/12/17 02:16:20;;;;;;;6.17;5.47;;;21.00;35.30;;;;;;4994381;28;20394;-56
2020/12/17 02:18:45;;;;;;;5.95;5.30;;;21.00;35.20;;;;;;4994139;28;20395;-56
2020/12/17 02:21:12;;;;;;;6.07;5.47;;;21.00;35.20;;;;;;4994026;28;20921;-57
2020/12/17 02:23:38;;;;;;;6.27;5.67;;;21.00;35.20;;;;;;5014046;28;20416;-56
2020/12/17 02:26:05;;;;;;;6.03;5.43;;;21.00;35.20;;;;;;5013796;28;20393;-56
2020/12/17 02:28:31;;;;;;;5.95;5.35;;;21.00;35.20;;;;;;5014012;28;20427;-56
2020/12/17 02:30:57;;;;;;;6.15;5.55;;;21.00;35.20;;;;;;5012169;28;20734;-56
2020/12/17 02:33:22;;;;;;;6.23;5.63;;;20.90;35.10;;;;;;4994088;28;20393;-56
2020/12/17 02:35:48;;;;;;;6.00;5.40;;;20.90;35.10;;;;;;4994099;28;20423;-56
2020/12/17 02:38:14;;;;;;;6.33;5.67;;;21.00;35.10;;;;;;5012921;28;20393;-56
2020/12/17 02:40:39;;;;;;;6.15;5.55;;;20.90;35.10;;;;;;5013470;28;20417;-56
2020/12/17 02:43:07;;;;;;;6.27;5.67;;;20.90;35.10;;;;;;5013054;28;20385;-56
2020/12/17 02:45:33;;;;;;;6.13;5.53;;;20.90;35.10;;;;;;5013338;28;20429;-56
2020/12/17 02:47:59;;;;;;;5.70;5.20;;;20.90;35.10;;;;;;5013409;28;20416;-55
2020/12/17 02:50:24;;;;;;;5.97;5.37;;;20.90;35.00;;;;;;5013039;28;20401;-56
2020/12/17 02:52:50;;;;;;;5.57;5.07;;;20.90;35.00;;;;;;5013025;28;20381;-56
2020/12/17 02:55:16;;;;;;;5.77;5.17;;;20.90;35.10;;;;;;5012962;28;20781;-56
2020/12/17 02:57:41;;;;;;;5.63;5.03;;;20.90;35.10;;;;;;5012874;28;20416;-56
2020/12/17 03:00:10;;;;;;;5.53;5.03;;;20.90;35.10;;;;;;5010703;28;20428;-56
2020/12/17 03:02:36;;;;;;;5.38;4.88;;;20.90;35.10;;;;;;5012832;28;20897;-56
2020/12/17 03:05:02;;;;;;;5.57;5.00;;;20.90;35.00;;;;;;5003003;28;20506;-56
2020/12/17 03:07:28;;;;;;;5.63;5.10;;;20.90;35.00;;;;;;4993399;28;20409;-56
2020/12/17 03:09:53;;;;;;;5.37;4.87;;;20.90;35.00;;;;;;4993292;28;20391;-56
2020/12/17 03:12:20;;;;;;;5.53;5.03;;;20.90;35.00;;;;;;4993351;28;20402;-56
2020/12/17 03:14:45;;;;;;;4.97;4.57;;;20.90;35.00;;;;;;4992927;28;20430;-56
2020/12/17 03:17:11;;;;;;;5.47;4.97;;;20.90;35.00;;;;;;4993061;28;20418;-56
2020/12/17 03:19:37;;;;;;;5.40;4.90;;;20.90;34.90;;;;;;4988441;28;20833;-56
2020/12/17 03:22:03;;;;;;;5.03;4.53;;;20.80;34.90;;;;;;5002112;28;20414;-56
2020/12/17 03:24:28;;;;;;;5.32;4.82;;;20.80;34.90;;;;;;4993101;28;20859;-56
2020/12/17 03:26:54;;;;;;;4.97;4.47;;;20.90;34.90;;;;;;5001582;28;20413;-56
2020/12/17 03:29:20;;;;;;;4.88;4.38;;;20.80;34.90;;;;;;5012170;28;20432;-56
2020/12/17 03:31:45;;;;;;;5.00;4.50;;;20.80;34.90;;;;;;5012556;28;20882;-56
2020/12/17 03:34:11;;;;;;;5.00;4.50;;;20.80;34.90;;;;;;4993901;28;20766;-56
2020/12/17 03:36:37;;;;;;;4.75;4.32;;;20.80;34.90;;;;;;4991853;28;20478;-56
2020/12/17 03:39:03;;;;;;;5.15;4.43;;;20.80;34.90;;;;;;4991728;28;20395;-56
2020/12/17 03:41:29;;;;;;;4.80;4.30;;;20.80;34.90;;;;;;4992568;28;20426;-56
2020/12/17 03:43:54;;;;;;;4.90;4.37;;;20.80;34.90;;;;;;4992573;28;20410;-56
2020/12/17 03:46:20;;;;;;;4.50;4.10;;;20.80;34.90;;;;;;4991879;28;20917;-56
2020/12/17 03:48:45;;;;;;;4.60;4.20;;;20.80;34.90;;;;;;4992624;28;20391;-56
2020/12/17 03:51:11;;;;;;;4.68;4.20;;;20.80;34.90;;;;;;4992004;28;20390;-56
2020/12/17 03:53:37;;;;;;;4.93;4.43;;;20.80;34.90;;;;;;4992595;28;20398;-56
2020/12/17 03:56:02;;;;;;;4.45;4.05;;;20.80;34.90;;;;;;4992453;28;20426;-56
2020/12/17 03:58:28;;;;;;;4.63;4.23;;;20.80;34.90;;;;;;4992568;28;20472;-56
2020/12/17 04:00:53;;;;;;;4.40;4.00;;;20.70;34.90;;;;;;5007918;28;20889;-56
2020/12/17 04:03:19;;;;;;;4.40;4.00;;;20.70;35.00;;;;;;4991130;28;20421;-56
2020/12/17 04:05:45;;;;;;;4.68;4.28;;;20.70;35.40;;;;;;4992243;28;20421;-56
2020/12/17 04:08:10;;;;;;;12.43;4.50;;;20.70;35.40;;;;;;4990815;28;20394;-56
2020/12/17 04:10:36;;;;;;;8.48;3.97;;;20.80;35.40;;;;;;4992269;28;20909;-56
2020/12/17 04:13:01;;;;;;;4.63;4.00;;;20.80;35.30;;;;;;4991160;28;20402;-56
2020/12/17 04:15:27;;;;;;;4.47;3.90;;;20.90;36.00;;;;;;4991720;28;20456;-60
2020/12/17 04:17:53;;;;;;;6.75;3.83;;;20.90;36.30;;;;;;4991138;28;20981;-56
2020/12/17 04:20:18;;;;;;;5.80;3.92;;;21.00;37.50;;;;;;4991657;28;20523;-56
2020/12/17 04:22:44;;;;;;;9.07;4.17;;;21.10;37.50;;;;;;4991711;28;20426;-57
2020/12/17 04:25:10;;;;;;;4.35;3.90;;;21.10;37.80;;;;;;4990849;28;20744;-56
2020/12/17 04:27:35;;;;;;;5.87;3.63;;;21.10;37.10;;;;;;4991264;28;20468;-56
2020/12/17 04:30:01;;;;;;;5.23;3.90;;;21.10;37.40;;;;;;4991789;28;20434;-56
2020/12/17 04:32:26;;;;;;;6.68;3.60;;;21.20;37.50;;;;;;4991970;28;20398;-56
2020/12/17 04:34:52;;;;;;;4.43;3.67;;;21.20;37.50;;;;;;4990115;28;21065;-58
2020/12/17 04:37:18;;;;;;;5.07;3.80;;;21.20;36.90;;;;;;4990694;28;20430;-56
2020/12/17 04:39:43;;;;;;;5.97;3.80;;;21.20;37.60;;;;;;4991795;28;20453;-56
2020/12/17 04:42:10;;;;;;;5.85;3.85;;;21.30;37.50;;;;;;4990707;28;20422;-56
2020/12/17 04:44:37;;;;;;;4.32;3.38;;;21.30;37.20;;;;;;4991767;28;20427;-56
2020/12/17 04:47:05;;;;;;;6.22;3.40;;;21.30;37.90;;;;;;4990608;28;20394;-58
2020/12/17 04:49:46;;;;;;;5.60;3.58;;;21.30;37.90;;;;;;4991597;28;20389;-56
2020/12/17 04:52:13;;;;;;;6.03;3.88;;;21.30;37.30;;;;;;4991243;28;20809;-56
2020/12/17 04:54:39;;;;;;;5.50;3.47;;;21.30;37.50;;;;;;4990981;28;20383;-56
2020/12/17 04:57:09;;;;;;;4.65;3.40;;;21.20;37.40;;;;;;4990496;28;20446;-56
2020/12/17 04:59:45;;;;;;;4.05;3.40;;;21.20;37.30;;;;;;4991518;28;20394;-56
2020/12/17 05:02:11;;;;;;;4.30;3.47;;;21.20;37.30;;;;;;5001424;28;20924;-56
2020/12/17 05:04:40;;;;;;;7.07;3.00;;;21.10;37.00;;;;;;5011421;28;20384;-56
2020/12/17 05:07:10;;;;;;;5.70;3.43;;;21.10;36.60;;;;;;4999184;28;20411;-56
2020/12/17 05:09:38;;;;;;;4.30;3.13;;;21.00;36.70;;;;;;4991683;28;20759;-56
2020/12/17 05:12:03;;;;;;;5.70;3.30;;;21.00;36.40;;;;;;4999188;28;20765;-56
2020/12/17 05:14:29;;;;;;;5.80;3.40;;;21.10;36.40;;;;;;5011199;28;20381;-56
2020/12/17 05:16:59;;;;;;;4.70;3.03;;;21.00;36.20;;;;;;5014899;28;20396;-56
2020/12/17 05:19:25;;;;;;;5.85;3.40;;;21.00;36.20;;;;;;5014699;28;20388;-56
2020/12/17 05:21:52;;;;;;;8.07;3.30;;;21.00;35.90;;;;;;5014977;28;20404;-56
2020/12/17 05:24:20;;;;;;;8.43;3.23;;;21.00;35.80;;;;;;5005141;28;20476;-56
2020/12/17 05:26:46;;;;;;;5.15;3.20;;;21.00;35.50;;;;;;4995248;28;20398;-56
2020/12/17 05:29:12;;;;;;;4.95;3.15;;;21.00;35.40;;;;;;4994693;28;20753;-56
2020/12/17 05:31:37;;;;;;;5.72;3.22;;;21.00;35.40;;;;;;4995145;28;20743;-57
2020/12/17 05:34:04;;;;;;;5.80;3.33;;;21.00;35.20;;;;;;4994678;28;20398;-57
2020/12/17 05:36:30;;;;;;;9.88;3.17;;;20.90;35.20;;;;;;4994760;28;20401;-57
2020/12/17 05:39:04;;;;;;;6.30;2.92;;;20.90;35.00;;;;;;4977161;28;20394;-56
2020/12/17 05:41:30;;;;;;;3.70;3.10;;;20.90;35.20;;;;;;4994737;28;20514;-56
2020/12/17 05:44:06;;;;;;;7.22;3.05;;;20.90;36.00;;;;;;4994949;28;20470;-56
2020/12/17 05:46:37;;;;;;;6.55;3.05;;;20.90;36.10;;;;;;4994187;28;20476;-56
2020/12/17 05:49:24;;;;;;;4.60;3.00;;;20.90;35.90;;;;;;4994501;28;20390;-56
2020/12/17 05:52:07;;;;;;;5.90;3.30;;;20.90;35.50;;;;;;5002870;28;20491;-56
2020/12/17 05:54:33;;;;;;;5.57;3.00;;;20.90;35.40;;;;;;4994875;28;20393;-56
2020/12/17 05:57:12;;;;;;;5.97;2.97;;;21.00;35.00;;;;;;5001280;28;20409;-56
2020/12/17 05:59:39;;;;;;;4.60;3.08;;;21.00;34.90;;;;;;4992710;28;20550;-56
2020/12/17 06:02:25;;;;;;;6.40;3.00;;;20.90;35.10;;;;;;4992197;28;20767;-56
2020/12/17 06:05:10;;;;;;;5.55;3.38;;;20.90;35.20;;;;;;4993053;28;20407;-56
2020/12/17 06:07:46;;;;;;;6.15;2.85;;;20.90;34.90;;;;;;4994089;28;20861;-56
2020/12/17 06:10:19;;;;;;;4.80;2.70;;;20.80;35.00;;;;;;4994375;28;20394;-56
2020/12/17 06:12:48;;;;;;;5.32;2.88;;;20.80;35.20;;;;;;4994536;28;20398;-56
2020/12/17 06:15:18;;;;;;;4.70;2.90;;;20.70;35.60;;;;;;4994918;28;20433;-56
2020/12/17 06:17:52;;;;;;;5.93;3.22;;;20.70;35.40;;;;;;4994361;28;20878;-56
2020/12/17 06:20:19;;;;;;;4.65;2.70;;;20.80;35.50;;;;;;4976898;28;20435;-56
2020/12/17 06:22:56;;;;;;;5.35;2.75;;;20.80;35.40;;;;;;4994250;28;20390;-56
2020/12/17 06:25:23;;;;;;;5.45;2.83;;;20.80;35.40;;;;;;4993617;28;20401;-56
2020/12/17 06:27:50;;;;;;;7.05;2.80;;;20.70;35.50;;;;;;4994211;28;20474;-56
2020/12/17 06:30:19;;;;;;;5.47;2.75;;;20.80;35.50;;;;;;4994181;28;20431;-56
2020/12/17 06:32:46;;;;;;;4.55;2.75;;;20.70;35.40;;;;;;4994066;28;20387;-56
2020/12/17 06:35:49;;;;;;;5.50;2.90;;;20.70;35.40;;;;;;4993531;28;20395;-56
2020/12/17 06:38:20;;;;;;;4.97;2.70;;;20.70;35.40;;;;;;4993870;28;20460;-56
2020/12/17 06:40:45;;;;;;;5.65;2.88;;;20.70;35.50;;;;;;4976405;28;20911;-56
2020/12/17 06:43:32;;;;;;;4.65;2.80;;;20.70;35.40;;;;;;5012879;28;20468;-56
2020/12/17 06:45:59;;;;;;;4.90;2.60;;;20.70;35.40;;;;;;5007064;28;20781;-56
2020/12/17 06:48:47;;;;;;;3.85;2.65;;;20.70;35.50;;;;;;5006212;28;20391;-56
2020/12/17 06:51:30;;;;;;;3.28;2.60;;;20.70;35.50;;;;;;5002997;28;20401;-61
2020/12/17 06:53:56;;;;;;;5.10;2.83;;;20.70;35.50;;;;;;5012416;28;20392;-56
2020/12/17 06:56:22;;;;;;;4.13;2.60;;;20.70;35.50;;;;;;5011356;28;20522;-57
2020/12/17 06:58:48;;;;;;;3.85;2.63;;;20.70;35.50;;;;;;5008590;28;20471;-58
2020/12/17 07:01:25;;;;;;;3.65;2.67;;;20.70;35.50;;;;;;5003404;28;20499;-56
2020/12/17 07:03:51;;;;;;;4.78;2.72;;;20.70;35.50;;;;;;4994609;28;20404;-56
2020/12/17 07:06:22;;;;;;;3.53;2.50;;;20.70;35.50;;;;;;5011651;28;20389;-56
2020/12/17 07:08:53;;;;;;;4.20;2.80;;;20.70;35.50;;;;;;5012128;28;20392;-56
2020/12/17 07:11:42;;;;;;;3.97;2.85;;;20.70;35.50;;;;;;5012662;28;20532;-56
2020/12/17 07:14:25;;;;;;;3.35;2.53;;;20.60;35.40;;;;;;5012877;28;20396;-56
2020/12/17 07:16:58;;;;;;;2.92;2.50;;;20.60;35.40;;;;;;5000218;28;20946;-56
2020/12/17 07:19:28;;;;;;;3.72;2.70;;;20.60;35.40;;;;;;4993138;28;20395;-56
2020/12/17 07:22:03;;;;;;;3.33;2.60;;;20.60;35.40;;;;;;5012901;28;20409;-56
2020/12/17 07:24:32;;;;;;;3.60;2.70;;;20.60;35.30;;;;;;5012770;28;20472;-56
2020/12/17 07:27:03;;;;;;;3.42;2.83;;;20.60;35.40;;;;;;4993741;28;20436;-56
2020/12/17 07:29:36;;;;;;;3.45;2.83;;;20.60;35.40;;;;;;4993876;28;20403;-56
2020/12/17 07:32:26;;;;;;;3.42;2.78;;;20.60;35.40;;;;;;5005386;28;20411;-56
2020/12/17 07:34:53;;;;;;;3.03;2.72;;;20.60;35.40;;;;;;4996225;28;20908;-56
2020/12/17 07:37:36;;;;;;;3.40;3.00;;;20.60;35.40;;;;;;4990845;28;20432;-56
2020/12/17 07:40:16;;;;;;;3.20;2.90;;;20.50;35.40;;;;;;5012241;28;20734;-56
2020/12/17 07:42:54;;;;;;;3.83;2.93;;;20.60;35.40;;;;;;4997587;28;20980;-56
2020/12/17 07:45:36;;;;;;;3.72;2.90;;;20.60;35.40;;;;;;5007861;28;20400;-56
2020/12/17 07:48:02;;;;;;;4.22;3.38;;;20.60;35.10;;;;;;5004318;28;20402;-56
2020/12/17 07:50:38;;;;;;;3.45;3.15;;;20.60;35.00;;;;;;5007481;28;20381;-56
2020/12/17 07:53:23;;;;;;;5.38;3.30;;;20.70;34.70;;;;;;5007603;28;20438;-56
2020/12/17 07:55:52;;;;;;;4.55;3.30;;;20.70;35.00;;;;;;4993340;28;20431;-62
2020/12/17 07:58:21;;;;;;;5.75;3.28;;;20.70;35.30;;;;;;5011723;28;21104;-57
2020/12/17 08:01:05;;;;;;;3.95;3.08;;;20.70;35.20;;;;;;5010761;28;20424;-57
2020/12/17 08:03:44;;;;;;;4.55;2.88;;;20.80;35.40;;;;;;4973478;28;20772;-57
2020/12/17 08:06:19;;;;;;;3.38;2.75;;;20.80;35.40;;;;;;4973060;28;20447;-56
2020/12/17 08:08:58;;;;;;;3.93;2.57;;;20.80;35.60;;;;;;4972910;28;20452;-56
2020/12/17 08:11:32;;;;;;;4.93;2.78;;;20.80;35.60;;;;;;4972603;28;20476;-56
2020/12/17 08:13:58;;;;;;;3.88;2.97;;;20.70;35.70;;;;;;4972812;28;20397;-57
2020/12/17 08:16:24;;;;;;;3.40;2.70;;;20.70;35.80;;;;;;4972639;28;20392;-56
2020/12/17 08:18:54;;;;;;;4.50;2.87;;;20.70;35.80;;;;;;4977655;28;20473;-57
2020/12/17 08:21:20;;;;;;;3.67;2.80;;;20.70;35.70;;;;;;4991465;28;20418;-56
2020/12/17 08:23:46;;;;;;;3.00;2.63;;;20.70;35.60;;;;;;4990075;28;20489;-56
2020/12/17 08:26:16;;;;;;;4.50;2.85;;;20.60;35.50;;;;;;4988469;28;20485;-56
2020/12/17 08:28:43;;;;;;;3.42;2.60;;;20.70;35.50;;;;;;4981975;28;20391;-56
2020/12/17 08:31:14;;;;;;;3.27;2.90;;;20.60;35.50;;;;;;4991817;28;20516;-56
2020/12/17 08:33:48;;;;;;;3.43;2.50;;;20.60;35.40;;;;;;4975747;28;20453;-56
2020/12/17 08:36:21;;;;;;;3.70;2.63;;;20.60;35.40;;;;;;4972649;28;20931;-56
2020/12/17 08:39:02;;;;;;;3.20;2.40;;;20.60;35.30;;;;;;4972680;28;20479;-56
2020/12/17 08:41:36;;;;;;;3.03;2.50;;;20.60;35.40;;;;;;4972377;28;20522;-56
2020/12/17 08:44:05;;;;;;;3.17;2.50;;;20.60;35.40;;;;;;4974595;28;20388;-56
2020/12/17 08:46:45;;;;;;;2.97;2.58;;;20.60;35.30;;;;;;4991874;28;20457;-57
2020/12/17 08:49:12;;;;;;;3.05;2.60;;;20.60;35.30;;;;;;4993601;28;20386;-63
2020/12/17 08:51:44;;;;;;;3.00;2.47;;;20.60;35.30;;;;;;4995888;28;20716;-57
2020/12/17 08:54:26;;;;;;;2.70;2.38;;;20.60;35.30;;;;;;4979667;28;20402;-56
2020/12/17 08:57:04;;;;;;;3.30;2.33;;;20.60;35.30;;;;;;4996143;28;20812;-63
2020/12/17 08:59:30;;;;;;;2.35;2.13;;;20.50;35.20;;;;;;4995554;28;20480;-56
2020/12/17 09:01:57;;;;;;;2.90;2.40;;;20.50;35.20;;;;;;5003824;28;20975;-56
2020/12/17 09:04:24;;;;;;;2.97;2.17;;;20.50;35.20;;;;;;4984970;28;20406;-57
2020/12/17 09:06:56;;;;;;;2.80;2.50;;;20.60;35.10;;;;;;5006836;28;20406;-56
2020/12/17 09:09:26;;;;;;;3.60;2.70;;;20.50;35.30;;;;;;5012817;28;20549;-57
2020/12/17 09:11:54;;;;;;;2.58;2.20;;;20.50;35.40;;;;;;4998199;28;20377;-56
2020/12/17 09:14:27;;;;;;;2.85;2.30;;;20.50;35.40;;;;;;5015201;28;20896;-56
2020/12/17 09:16:52;;;;;;;2.67;2.28;;;20.50;36.00;;;;;;5015103;28;20393;-56
2020/12/17 09:19:18;;;;;;;3.47;2.20;;;20.50;35.40;;;;;;5014656;28;20407;-64
2020/12/17 09:21:59;;;;;;;2.55;2.05;;;20.50;35.30;;;;;;5014929;28;20514;-57
2020/12/17 09:24:36;;;;;;;3.70;2.45;;;20.50;35.30;;;;;;4997384;28;20397;-66
2020/12/17 09:27:23;;;;;;;2.55;2.30;;;20.50;35.20;;;;;;5014924;28;20403;-56
2020/12/17 09:30:18;;;;;;;3.00;2.40;;;20.50;35.20;;;;;;5014633;28;20424;-60
2020/12/17 09:32:59;;;;;;;2.90;2.22;;;20.50;35.20;;;;;;4994281;28;20440;-57
2020/12/17 09:35:33;;;;;;;2.58;2.20;;;20.50;35.10;;;;;;5013128;28;20397;-56
2020/12/17 09:38:12;;;;;;;2.28;1.90;;;20.50;35.10;;;;;;4997125;28;20432;-57
2020/12/17 09:40:40;;;;;;;3.00;2.20;;;20.50;35.10;;;;;;5014526;28;20420;-56
2020/12/17 09:43:10;;;;;;;2.53;2.33;;;20.50;35.70;;;;;;5014692;28;20463;-56
2020/12/17 09:45:44;;;;;;;2.33;2.13;;;20.50;35.10;;;;;;5014301;28;20423;-56
2020/12/17 09:48:17;;;;;;;2.50;2.30;;;20.50;35.10;;;;;;5014422;28;20945;-56
2020/12/17 09:50:55;;;;;;;2.63;2.33;;;20.50;35.10;;;;;;5014532;28;20401;-56
2020/12/17 09:53:22;;;;;;;2.95;2.40;;;20.50;35.00;;;;;;5014026;28;20484;-57
2020/12/17 09:55:48;;;;;;;3.03;2.40;;;20.50;35.00;;;;;;5014504;28;20741;-56
2020/12/17 09:58:14;;;;;;;2.70;2.30;;;20.50;35.00;;;;;;5014303;28;20393;-56
2020/12/17 10:00:39;;;;;;;2.50;2.30;;;20.50;35.00;;;;;;5013423;28;20428;-59
2020/12/17 10:03:05;;;;;;;2.97;2.40;;;20.50;35.00;;;;;;5013638;28;20409;-61
2020/12/17 10:05:31;;;;;;;2.67;2.20;;;20.50;35.00;;;;;;5013591;28;20397;-56
2020/12/17 10:07:56;;;;;;;2.40;2.20;;;20.50;35.00;;;;;;4996447;28;20397;-56
2020/12/17 10:10:22;;;;;;;2.20;2.00;;;20.50;35.00;;;;;;5014175;28;20385;-56
2020/12/17 10:12:48;;;;;;;2.60;2.40;;;20.50;35.00;;;;;;5014091;28;20488;-56
2020/12/17 10:15:13;;;;;;;2.60;2.40;;;20.50;35.00;;;;;;5013040;28;20455;-56
2020/12/17 10:17:39;;;;;;;2.60;2.30;;;20.50;35.00;;;;;;5013851;28;20403;-57
2020/12/17 10:20:06;;;;;;;2.30;2.10;;;20.50;35.00;;;;;;5014386;28;20424;-57
2020/12/17 10:22:32;;;;;;;2.65;2.08;;;20.50;35.00;;;;;;5013775;28;20880;-57
2020/12/17 10:24:58;;;;;;;2.35;2.15;;;20.50;34.90;;;;;;5013765;28;20412;-56
2020/12/17 10:27:23;;;;;;;2.63;2.30;;;20.50;34.90;;;;;;5013402;28;20472;-56
2020/12/17 10:29:49;;;;;;;2.65;2.45;;;20.50;34.90;;;;;;5013738;28;20451;-57
2020/12/17 10:32:18;;;;;;;2.37;2.17;;;20.60;35.00;;;;;;4996104;28;20881;-56
2020/12/17 10:34:43;;;;;;;3.50;2.30;;;20.60;34.90;;;;;;5013475;28;20865;-56
2020/12/17 10:37:09;;;;;;;2.70;2.30;;;20.60;34.90;;;;;;5013215;28;20401;-56
2020/12/17 10:39:35;;;;;;;2.42;2.20;;;20.70;34.60;;;;;;4995792;28;20979;-61
2020/12/17 10:42:02;;;;;;;2.53;2.13;;;20.70;34.60;;;;;;5013145;28;20801;-62
2020/12/17 10:44:27;;;;;;;2.50;2.30;;;20.70;34.70;;;;;;5013015;28;20496;-56
2020/12/17 10:46:53;;;;;;;2.45;2.25;;;20.70;34.70;;;;;;5013399;28;20400;-56
2020/12/17 10:49:19;;;;;;;2.47;2.27;;;20.70;34.60;;;;;;5013257;28;20397;-56
2020/12/17 10:51:44;;;;;;;2.40;2.20;;;20.80;34.70;;;;;;5013047;28;20849;-56
2020/12/17 10:54:10;;;;;;;2.50;2.10;;;20.90;34.60;;;;;;5013268;28;20392;-56
2020/12/17 10:56:36;;;;;;;3.00;2.38;;;21.00;34.50;;;;;;5013561;28;20415;-57
2020/12/17 10:59:02;;;;;;;2.83;2.20;;;21.00;34.40;;;;;;5013161;28;20396;-57
2020/12/17 11:01:27;;;;;;;2.65;2.22;;;21.00;34.40;;;;;;5012503;28;20428;-56
2020/12/17 11:03:53;;;;;;;2.20;2.00;;;21.00;34.50;;;;;;5012907;28;20895;-57
2020/12/17 11:06:21;;;;;;;2.50;2.25;;;21.00;34.40;;;;;;5013050;28;20903;-57
2020/12/17 11:08:47;;;;;;;2.60;2.40;;;21.00;34.30;;;;;;5013025;28;20380;-56
2020/12/17 11:11:13;;;;;;;2.23;1.90;;;21.10;34.40;;;;;;4994359;28;20400;-56
2020/12/17 11:13:39;;;;;;;2.45;2.10;;;21.10;34.30;;;;;;4994091;28;20397;-56
2020/12/17 11:16:05;;;;;;;2.40;2.20;;;21.10;34.30;;;;;;4995192;28;20404;-56
2020/12/17 11:18:30;;;;;;;2.50;2.30;;;21.10;34.30;;;;;;5012697;28;20377;-57
2020/12/17 11:20:56;;;;;;;2.40;2.20;;;21.10;34.30;;;;;;5012739;28;20424;-56
2020/12/17 11:23:22;;;;;;;2.53;2.13;;;21.10;34.30;;;;;;5012332;28;20911;-56
2020/12/17 11:25:47;;;;;;;3.10;2.10;;;21.10;34.30;;;;;;5012668;28;20746;-57
2020/12/17 11:28:13;;;;;;;2.60;2.15;;;21.10;34.30;;;;;;5012346;28;20389;-56
2020/12/17 11:30:38;;;;;;;2.83;2.00;;;21.10;34.40;;;;;;5011264;28;20408;-57
2020/12/17 11:33:04;;;;;;;3.20;2.15;;;21.10;34.50;;;;;;5012405;28;20377;-56
2020/12/17 11:35:32;;;;;;;4.67;2.10;;;21.20;34.60;;;;;;5011991;28;20927;-57
2020/12/17 11:37:57;;;;;;;3.70;2.10;;;21.20;34.90;;;;;;5011545;28;20420;-57
2020/12/17 11:40:24;;;;;;;3.27;2.17;;;21.30;34.90;;;;;;5012252;28;20503;-56
2020/12/17 11:42:51;;;;;;;2.80;2.30;;;21.30;34.90;;;;;;4994915;28;20491;-56
2020/12/17 11:45:17;;;;;;;4.65;2.10;;;21.30;34.90;;;;;;5012032;28;20531;-56
2020/12/17 11:47:43;;;;;;;2.83;2.10;;;21.40;35.00;;;;;;5011976;28;21257;-56
2020/12/17 11:50:09;;;;;;;3.88;2.00;;;21.30;34.90;;;;;;5011994;28;20400;-56
2020/12/17 11:52:36;;;;;;;3.83;1.98;;;21.30;35.00;;;;;;5012326;28;20397;-56
2020/12/17 11:55:04;;;;;;;2.88;2.10;;;21.30;35.00;;;;;;5012031;28;20905;-58
2020/12/17 11:57:30;;;;;;;3.23;2.00;;;21.30;35.00;;;;;;5011622;28;20450;-56
2020/12/17 11:59:56;;;;;;;3.75;2.15;;;21.30;35.10;;;;;;5011494;28;20760;-63
2020/12/17 12:02:21;;;;;;;2.43;2.03;;;21.30;35.00;;;;;;5011856;28;20412;-61
2020/12/17 12:04:47;;;;;;;3.45;2.03;;;21.30;35.00;;;;;;5012032;28;20396;-57
2020/12/17 12:07:12;;;;;;;2.70;1.90;;;21.30;35.10;;;;;;5012037;28;20425;-59
2020/12/17 12:09:38;;;;;;;2.33;2.08;;;21.30;35.00;;;;;;4993868;28;20435;-56
2020/12/17 12:12:04;;;;;;;3.30;2.10;;;21.30;34.90;;;;;;5011932;28;20392;-56
2020/12/17 12:14:29;;;;;;;4.75;1.98;;;21.30;34.90;;;;;;4994249;28;20737;-56
2020/12/17 12:16:55;;;;;;;2.30;2.10;;;21.30;34.80;;;;;;5011750;28;20389;-59
2020/12/17 12:19:20;;;;;;;2.70;2.20;;;21.30;34.80;;;;;;4994072;28;20396;-57
2020/12/17 12:21:51;;;;;;;2.30;1.97;;;21.30;34.70;;;;;;5010636;28;20439;-59
2020/12/17 12:24:17;;;;;;;3.10;2.10;;;21.30;34.60;;;;;;5011397;28;20389;-58
2020/12/17 12:26:42;;;;;;;2.75;2.15;;;21.30;34.60;;;;;;5011746;28;20515;-62
2020/12/17 12:29:08;;;;;;;2.95;2.30;;;21.30;34.50;;;;;;5011653;28;20468;-57
2020/12/17 12:31:34;;;;;;;3.40;2.20;;;21.40;34.50;;;;;;5011128;28;20946;-65
2020/12/17 12:33:59;;;;;;;2.45;2.20;;;21.40;34.40;;;;;;5011606;28;20430;-58
2020/12/17 12:36:25;;;;;;;2.63;1.90;;;21.40;34.40;;;;;;5011756;28;20385;-57
2020/12/17 12:38:51;;;;;;;2.80;2.00;;;21.40;34.30;;;;;;5011490;28;20495;-56
2020/12/17 12:41:20;;;;;;;3.20;2.10;;;21.40;34.20;;;;;;5011286;28;20897;-59
2020/12/17 12:43:46;;;;;;;3.28;2.30;;;21.50;34.30;;;;;;5010407;28;20387;-61
2020/12/17 12:46:12;;;;;;;3.42;2.10;;;21.50;34.80;;;;;;5011845;28;20776;-56
2020/12/17 12:48:38;;;;;;;2.88;2.20;;;21.40;34.20;;;;;;5011557;28;20393;-56
2020/12/17 12:51:04;;;;;;;3.87;2.20;;;21.50;34.20;;;;;;4993927;28;20393;-56
2020/12/17 12:53:31;;;;;;;3.17;2.40;;;21.40;34.10;;;;;;5011315;28;20393;-56
2020/12/17 12:55:57;;;;;;;2.67;2.00;;;21.40;34.10;;;;;;5011452;28;20400;-56